Time;durP1;ratioP1;P1;durP2;ratioP2;P2;SDS_P1;SDS_P2;PMS_P1;PMS_P2;Temp;Humidity;BMP_temperature;BMP_pressure;BME280_temperature;BME280_humidity;BME280_pressure;Samples;Min_cycle;Max_cycle;Signal;HPM_P1;HPM_P2
2022/03/08 00:00:24;;;;;;;74.15;61.63;;;2.20;89.50;;;;;;611967;235;26583;-68
2022/03/08 00:02:51;;;;;;;68.80;58.33;;;2.30;90.10;;;;;;611913;235;26850;-68
2022/03/08 00:05:19;;;;;;;71.37;58.45;;;2.30;90.60;;;;;;611946;235;26584;-68
2022/03/08 00:07:46;;;;;;;69.07;57.00;;;2.20;90.50;;;;;;611953;235;26817;-67
2022/03/08 00:10:13;;;;;;;63.65;54.10;;;2.20;90.40;;;;;;611713;235;26592;-67
2022/03/08 00:12:40;;;;;;;66.25;54.42;;;2.00;90.10;;;;;;611608;235;27333;-67
2022/03/08 00:15:10;;;;;;;65.68;53.17;;;2.00;90.40;;;;;;611675;235;26631;-67
2022/03/08 00:17:37;;;;;;;60.67;53.08;;;2.00;90.90;;;;;;611496;235;26630;-67
2022/03/08 00:20:06;;;;;;;63.25;54.08;;;2.10;90.40;;;;;;611583;235;26846;-67
2022/03/08 00:22:32;;;;;;;60.45;51.40;;;2.00;90.70;;;;;;611610;235;26666;-67
2022/03/08 00:25:01;;;;;;;57.85;49.22;;;2.00;90.70;;;;;;611674;235;26888;-67
2022/03/08 00:27:27;;;;;;;60.38;50.97;;;2.00;91.50;;;;;;611555;235;26651;-67
2022/03/08 00:29:54;;;;;;;54.60;47.88;;;2.10;91.80;;;;;;611710;235;26825;-67
2022/03/08 00:32:21;;;;;;;55.15;48.47;;;2.10;90.80;;;;;;611708;235;26661;-67
2022/03/08 00:34:48;;;;;;;53.97;45.90;;;2.30;92.40;;;;;;611745;235;26634;-67
2022/03/08 00:37:16;;;;;;;51.90;45.20;;;2.10;91.20;;;;;;611808;235;26623;-67
2022/03/08 00:39:44;;;;;;;49.15;43.40;;;2.00;91.30;;;;;;611704;235;26628;-67
2022/03/08 00:42:12;;;;;;;50.15;43.33;;;2.00;91.70;;;;;;611608;235;26656;-67
2022/03/08 00:44:40;;;;;;;47.20;40.72;;;1.90;91.60;;;;;;612058;233;26630;-67
2022/03/08 00:47:08;;;;;;;49.08;41.35;;;2.10;92.00;;;;;;613153;234;26636;-67
2022/03/08 00:49:36;;;;;;;46.83;40.15;;;2.00;92.80;;;;;;612735;235;26632;-67
2022/03/08 00:52:04;;;;;;;47.33;40.83;;;2.00;92.70;;;;;;612493;235;26590;-67
2022/03/08 00:54:31;;;;;;;46.97;39.88;;;2.00;92.70;;;;;;612770;234;26664;-67
2022/03/08 00:56:58;;;;;;;43.83;37.83;;;2.00;91.70;;;;;;612597;230;26835;-67
2022/03/08 00:59:26;;;;;;;45.33;38.15;;;1.80;91.80;;;;;;620867;231;26570;-67
2022/03/08 01:01:53;;;;;;;42.28;37.55;;;1.70;91.80;;;;;;610364;234;26782;-67
2022/03/08 01:04:20;;;;;;;43.47;37.03;;;1.70;92.00;;;;;;617912;231;26573;-66
2022/03/08 01:06:47;;;;;;;41.10;35.67;;;1.70;92.90;;;;;;617504;231;26824;-68
2022/03/08 01:09:14;;;;;;;44.47;36.00;;;1.80;92.30;;;;;;621331;231;26561;-66
2022/03/08 01:11:43;;;;;;;38.88;33.22;;;1.90;92.50;;;;;;616763;231;26822;-64
2022/03/08 01:14:11;;;;;;;39.78;34.00;;;1.70;92.20;;;;;;604705;235;26907;-64
2022/03/08 01:16:39;;;;;;;38.58;33.33;;;1.70;92.70;;;;;;602869;235;26644;-64
2022/03/08 01:19:07;;;;;;;36.83;31.75;;;1.60;92.60;;;;;;602961;236;26651;-64
2022/03/08 01:21:35;;;;;;;36.67;31.58;;;1.70;93.00;;;;;;605366;236;26644;-64
2022/03/08 01:24:03;;;;;;;35.65;29.83;;;1.50;92.90;;;;;;606771;236;26613;-64
2022/03/08 01:26:31;;;;;;;34.60;30.25;;;1.50;92.90;;;;;;604663;235;26632;-64
2022/03/08 01:28:57;;;;;;;33.80;29.35;;;1.50;92.90;;;;;;605318;236;26824;-63
2022/03/08 01:31:25;;;;;;;33.70;27.52;;;1.50;93.00;;;;;;611082;235;26577;-64
2022/03/08 01:33:54;;;;;;;31.80;27.60;;;1.40;93.20;;;;;;613128;232;27011;-64
2022/03/08 01:36:19;;;;;;;31.75;26.98;;;1.50;93.90;;;;;;617429;231;26614;-64
2022/03/08 01:38:47;;;;;;;29.33;26.20;;;1.70;93.70;;;;;;613762;232;26910;-64
2022/03/08 01:41:14;;;;;;;30.77;25.77;;;1.60;93.30;;;;;;609022;235;26600;-64
2022/03/08 01:43:42;;;;;;;30.25;25.27;;;1.60;93.70;;;;;;610267;231;26617;-64
2022/03/08 01:46:10;;;;;;;29.55;24.58;;;1.50;93.40;;;;;;619630;232;26615;-64
2022/03/08 01:48:38;;;;;;;26.27;23.40;;;1.60;93.70;;;;;;612332;235;26637;-64
2022/03/08 01:51:06;;;;;;;27.08;23.55;;;1.60;93.60;;;;;;609862;236;26624;-64
2022/03/08 01:53:34;;;;;;;26.58;23.27;;;1.60;93.30;;;;;;619866;232;26650;-64
2022/03/08 01:56:01;;;;;;;26.12;22.50;;;1.60;93.30;;;;;;622512;229;26556;-64
2022/03/08 01:58:28;;;;;;;24.30;20.75;;;1.60;93.80;;;;;;621945;230;26601;-64
2022/03/08 02:00:56;;;;;;;23.80;21.12;;;1.80;94.50;;;;;;621410;231;26593;-64
2022/03/08 02:03:24;;;;;;;23.35;20.83;;;1.80;94.50;;;;;;610971;234;26845;-64
2022/03/08 02:05:51;;;;;;;22.15;19.77;;;1.80;93.80;;;;;;625228;230;26614;-64
2022/03/08 02:08:19;;;;;;;21.33;19.08;;;1.70;93.50;;;;;;615728;233;26828;-64
2022/03/08 02:10:46;;;;;;;21.23;18.92;;;1.60;93.40;;;;;;616442;232;26861;-64
2022/03/08 02:13:13;;;;;;;20.42;17.77;;;1.50;93.90;;;;;;615401;233;26626;-64
2022/03/08 02:15:40;;;;;;;21.05;17.67;;;1.50;94.30;;;;;;615177;233;26946;-63
2022/03/08 02:18:08;;;;;;;27.23;17.52;;;1.30;94.10;;;;;;615156;233;26570;-64
2022/03/08 02:20:35;;;;;;;19.30;17.27;;;1.40;94.50;;;;;;615165;233;26820;-63
2022/03/08 02:23:02;;;;;;;19.77;16.98;;;1.50;95.10;;;;;;615083;234;26570;-64
2022/03/08 02:25:29;;;;;;;19.02;17.02;;;1.60;95.10;;;;;;615175;233;26836;-69
2022/03/08 02:27:56;;;;;;;19.52;17.40;;;1.50;94.30;;;;;;615172;233;26617;-69
2022/03/08 02:30:24;;;;;;;18.75;16.10;;;1.40;96.10;;;;;;614305;234;27074;-69
2022/03/08 02:32:52;;;;;;;19.05;15.70;;;1.40;96.10;;;;;;630770;226;26867;-69
2022/03/08 02:35:21;;;;;;;17.27;15.30;;;1.40;94.40;;;;;;622997;229;26583;-69
2022/03/08 02:37:48;;;;;;;16.98;14.80;;;1.30;94.50;;;;;;622934;231;26931;-69
2022/03/08 02:40:15;;;;;;;17.12;14.70;;;1.20;95.00;;;;;;622789;229;26576;-69
2022/03/08 02:42:42;;;;;;;16.05;14.35;;;1.20;94.50;;;;;;622759;229;26849;-69
2022/03/08 02:45:09;;;;;;;15.57;13.88;;;1.30;95.00;;;;;;622954;229;26561;-69
2022/03/08 02:47:37;;;;;;;15.15;13.35;;;1.30;94.80;;;;;;622937;229;26828;-69
2022/03/08 02:50:06;;;;;;;15.52;13.18;;;1.30;95.40;;;;;;622972;231;26591;-72
2022/03/08 02:52:32;;;;;;;16.08;12.52;;;1.50;95.50;;;;;;624473;229;26597;-66
2022/03/08 02:55:00;;;;;;;14.77;12.43;;;1.40;95.50;;;;;;626284;230;26539;-67
2022/03/08 02:57:27;;;;;;;12.60;11.30;;;1.30;95.40;;;;;;626256;229;26539;-68
2022/03/08 02:59:54;;;;;;;12.63;11.32;;;1.40;95.00;;;;;;626263;229;26768;-67
2022/03/08 03:02:22;;;;;;;14.35;11.00;;;1.20;95.50;;;;;;626200;229;26574;-68
2022/03/08 03:04:49;;;;;;;11.85;10.55;;;1.20;95.10;;;;;;626221;229;26923;-68
2022/03/08 03:07:16;;;;;;;12.05;10.07;;;1.40;97.70;;;;;;626123;229;26539;-68
2022/03/08 03:09:43;;;;;;;11.35;10.05;;;1.40;95.40;;;;;;625486;227;27439;-68
2022/03/08 03:12:10;;;;;;;11.18;10.07;;;1.40;95.80;;;;;;623985;229;26575;-68
2022/03/08 03:14:38;;;;;;;11.93;10.07;;;1.20;95.30;;;;;;623739;229;26864;-68
2022/03/08 03:17:05;;;;;;;12.07;9.85;;;1.10;95.40;;;;;;623667;229;26587;-68
2022/03/08 03:19:32;;;;;;;10.52;8.77;;;1.30;98.00;;;;;;623634;229;27273;-68
2022/03/08 03:21:59;;;;;;;9.57;8.65;;;1.40;97.00;;;;;;623499;229;26590;-68
2022/03/08 03:24:26;;;;;;;9.23;8.27;;;1.40;96.80;;;;;;623488;229;26560;-68
2022/03/08 03:26:54;;;;;;;10.05;8.50;;;1.30;96.90;;;;;;623385;229;26583;-68
2022/03/08 03:29:22;;;;;;;9.48;8.00;;;1.30;95.50;;;;;;623272;229;26575;-68
2022/03/08 03:31:49;;;;;;;8.93;8.02;;;1.30;95.50;;;;;;623179;229;26623;-68
2022/03/08 03:34:17;;;;;;;8.60;7.65;;;1.30;98.10;;;;;;623264;231;26579;-68
2022/03/08 03:36:44;;;;;;;8.05;7.10;;;1.30;96.30;;;;;;623281;231;26822;-68
2022/03/08 03:39:11;;;;;;;7.07;6.40;;;1.50;97.00;;;;;;623259;229;26586;-68
2022/03/08 03:41:38;;;;;;;7.72;6.93;;;1.70;98.00;;;;;;623809;226;27168;-68
2022/03/08 03:44:06;;;;;;;7.82;7.03;;;1.50;95.70;;;;;;625871;226;26624;-68
2022/03/08 03:46:34;;;;;;;7.30;6.57;;;1.60;96.00;;;;;;626281;229;26539;-68
2022/03/08 03:49:01;;;;;;;7.00;6.40;;;1.60;96.00;;;;;;626253;229;26858;-68
2022/03/08 03:51:29;;;;;;;6.30;5.70;;;1.40;95.40;;;;;;626203;229;26548;-68
2022/03/08 03:53:56;;;;;;;6.97;6.28;;;1.40;96.60;;;;;;626207;229;27252;-68
2022/03/08 03:56:23;;;;;;;6.32;5.32;;;1.30;95.70;;;;;;626225;229;26533;-68
2022/03/08 03:58:50;;;;;;;8.40;6.35;;;1.20;96.40;;;;;;626250;229;26802;-68
2022/03/08 04:01:18;;;;;;;6.75;5.70;;;1.00;96.00;;;;;;626223;229;26551;-68
2022/03/08 04:03:46;;;;;;;5.90;5.30;;;1.00;96.60;;;;;;626260;229;26575;-68
2022/03/08 04:06:14;;;;;;;5.87;5.28;;;1.00;96.50;;;;;;623338;231;26518;-68
2022/03/08 04:08:42;;;;;;;6.32;5.15;;;0.90;96.00;;;;;;622396;230;26556;-68
2022/03/08 04:11:09;;;;;;;5.53;5.03;;;0.90;96.00;;;;;;623023;230;26583;-68
2022/03/08 04:13:36;;;;;;;5.30;4.80;;;0.90;96.30;;;;;;623727;229;26579;-68
2022/03/08 04:16:04;;;;;;;5.43;4.82;;;0.90;96.20;;;;;;626563;229;26780;-68
2022/03/08 04:18:32;;;;;;;5.70;5.03;;;0.90;96.70;;;;;;624127;228;26611;-68
2022/03/08 04:21:00;;;;;;;5.35;4.93;;;0.90;96.30;;;;;;624400;228;26597;-68
2022/03/08 04:23:27;;;;;;;5.85;4.90;;;0.80;96.20;;;;;;624169;229;26563;-68
2022/03/08 04:25:54;;;;;;;4.93;4.37;;;0.90;96.40;;;;;;623934;228;26585;-68
2022/03/08 04:28:21;;;;;;;4.70;4.30;;;0.90;96.40;;;;;;623847;229;26811;-68
2022/03/08 04:30:48;;;;;;;4.20;3.80;;;0.80;96.20;;;;;;623563;229;26524;-68
2022/03/08 04:33:15;;;;;;;5.18;4.68;;;0.80;96.50;;;;;;623497;229;26567;-68
2022/03/08 04:35:43;;;;;;;4.20;3.78;;;0.80;96.20;;;;;;623561;229;26565;-68
2022/03/08 04:38:11;;;;;;;4.40;4.00;;;0.70;97.30;;;;;;623430;229;26535;-68
2022/03/08 04:40:39;;;;;;;4.50;4.10;;;0.80;97.30;;;;;;623274;230;26813;-68
2022/03/08 04:43:06;;;;;;;4.28;3.87;;;0.80;96.40;;;;;;623278;230;26619;-68
2022/03/08 04:45:33;;;;;;;3.87;3.58;;;0.70;96.20;;;;;;623238;229;26810;-68
2022/03/08 04:48:01;;;;;;;4.78;3.80;;;0.70;96.30;;;;;;624693;226;26597;-68
2022/03/08 04:50:29;;;;;;;4.15;3.80;;;0.80;95.80;;;;;;624362;229;26570;-68
2022/03/08 04:52:57;;;;;;;5.25;4.07;;;0.90;96.10;;;;;;623268;229;26612;-67
2022/03/08 04:55:24;;;;;;;3.97;3.55;;;0.90;96.10;;;;;;623236;229;26821;-67
2022/03/08 04:57:51;;;;;;;4.10;3.62;;;0.80;96.30;;;;;;623029;224;26583;-67
2022/03/08 05:00:18;;;;;;;3.62;3.33;;;0.80;96.10;;;;;;622993;229;26828;-67
2022/03/08 05:02:46;;;;;;;3.70;3.40;;;0.90;96.10;;;;;;622927;229;26603;-67
2022/03/08 05:05:13;;;;;;;4.12;3.62;;;0.90;96.00;;;;;;622926;229;26602;-67
2022/03/08 05:07:41;;;;;;;3.87;3.55;;;0.80;96.30;;;;;;622960;229;26591;-67
2022/03/08 05:10:09;;;;;;;4.12;3.58;;;0.80;96.40;;;;;;625763;229;26539;-67
2022/03/08 05:12:36;;;;;;;4.22;3.35;;;0.80;95.70;;;;;;626234;229;26577;-67
2022/03/08 05:15:03;;;;;;;3.50;3.08;;;0.70;95.70;;;;;;626262;230;26774;-67
2022/03/08 05:17:33;;;;;;;3.35;3.05;;;1.00;95.80;;;;;;626257;228;26578;-67
2022/03/08 05:20:00;;;;;;;4.05;3.70;;;1.00;95.80;;;;;;626227;229;26548;-67
2022/03/08 05:22:27;;;;;;;3.67;3.37;;;1.00;96.60;;;;;;626185;229;26592;-67
2022/03/08 05:24:54;;;;;;;3.80;3.50;;;0.90;95.70;;;;;;626215;229;27212;-67
2022/03/08 05:27:21;;;;;;;3.42;3.10;;;0.80;95.50;;;;;;626232;229;26543;-67
2022/03/08 05:29:49;;;;;;;3.40;3.10;;;0.90;97.20;;;;;;626218;229;26817;-67
2022/03/08 05:32:17;;;;;;;3.53;3.20;;;0.90;95.90;;;;;;627464;227;26523;-67
2022/03/08 05:34:45;;;;;;;3.72;3.28;;;0.90;96.30;;;;;;627547;228;26586;-67
2022/03/08 05:37:12;;;;;;;3.08;2.87;;;0.90;96.30;;;;;;627211;229;26783;-67
2022/03/08 05:39:39;;;;;;;3.25;2.92;;;0.90;95.70;;;;;;627197;229;26540;-67
2022/03/08 05:42:07;;;;;;;3.37;3.08;;;0.80;95.50;;;;;;626840;229;26622;-67
2022/03/08 05:44:34;;;;;;;2.80;2.60;;;0.80;95.10;;;;;;626855;228;26591;-67
2022/03/08 05:47:01;;;;;;;2.90;2.70;;;0.90;95.50;;;;;;626849;228;26808;-67
2022/03/08 05:49:29;;;;;;;3.40;3.10;;;1.00;95.40;;;;;;626768;228;26590;-67
2022/03/08 05:51:56;;;;;;;3.20;3.00;;;0.90;96.00;;;;;;626547;229;26544;-67
2022/03/08 05:54:24;;;;;;;2.42;2.22;;;0.90;94.80;;;;;;626593;228;26527;-67
2022/03/08 05:56:52;;;;;;;3.00;2.80;;;0.80;95.20;;;;;;626523;223;26549;-68
2022/03/08 05:59:19;;;;;;;2.85;2.65;;;0.80;94.80;;;;;;627475;226;26769;-67
2022/03/08 06:01:46;;;;;;;2.83;2.62;;;0.80;94.80;;;;;;637225;225;26593;-67
2022/03/08 06:04:13;;;;;;;2.58;2.37;;;0.90;95.50;;;;;;638375;225;27248;-68
2022/03/08 06:06:41;;;;;;;2.67;2.47;;;0.80;94.90;;;;;;637067;221;26504;-67
2022/03/08 06:09:09;;;;;;;2.55;2.35;;;0.80;94.80;;;;;;631132;225;26602;-68
2022/03/08 06:11:37;;;;;;;2.67;2.47;;;0.80;95.20;;;;;;622920;230;26586;-68
2022/03/08 06:14:04;;;;;;;2.33;2.22;;;0.80;95.20;;;;;;622932;229;26841;-68
2022/03/08 06:16:32;;;;;;;3.15;2.85;;;0.80;95.10;;;;;;623029;230;26601;-68
2022/03/08 06:18:59;;;;;;;2.65;2.45;;;0.80;95.10;;;;;;623042;229;26829;-67
2022/03/08 06:21:26;;;;;;;3.00;2.72;;;0.90;95.30;;;;;;622968;229;26579;-67
2022/03/08 06:23:53;;;;;;;2.60;2.40;;;1.00;95.20;;;;;;622996;230;26583;-67
2022/03/08 06:26:21;;;;;;;2.58;2.37;;;1.00;95.40;;;;;;622967;230;26590;-67
2022/03/08 06:28:49;;;;;;;2.70;2.50;;;1.10;96.80;;;;;;622979;229;26592;-68
2022/03/08 06:31:17;;;;;;;2.53;2.33;;;1.10;96.70;;;;;;622961;229;26943;-68
2022/03/08 06:33:44;;;;;;;2.28;2.17;;;1.30;95.60;;;;;;622959;230;26608;-68
2022/03/08 06:36:11;;;;;;;2.22;2.12;;;1.30;95.10;;;;;;623021;229;26822;-69
2022/03/08 06:38:38;;;;;;;2.22;2.10;;;1.40;95.70;;;;;;622946;230;26557;-68
2022/03/08 06:41:07;;;;;;;2.55;2.35;;;1.60;95.00;;;;;;622972;229;26579;-68
2022/03/08 06:43:33;;;;;;;2.60;2.40;;;1.60;94.60;;;;;;624112;228;26608;-68
2022/03/08 06:46:01;;;;;;;2.42;2.20;;;1.60;95.60;;;;;;624231;228;26788;-68
2022/03/08 06:48:29;;;;;;;2.42;2.28;;;1.50;95.10;;;;;;623880;228;26578;-68
2022/03/08 06:50:56;;;;;;;2.67;1.98;;;1.50;95.10;;;;;;623865;230;26591;-68
2022/03/08 06:53:24;;;;;;;2.58;2.37;;;1.90;97.30;;;;;;623569;229;26570;-68
2022/03/08 06:55:51;;;;;;;2.42;2.22;;;2.00;94.70;;;;;;623592;229;26797;-68
2022/03/08 06:58:18;;;;;;;2.20;2.10;;;1.80;94.60;;;;;;623593;229;26538;-68
2022/03/08 07:00:45;;;;;;;2.20;2.03;;;1.90;95.00;;;;;;623462;229;27186;-67
2022/03/08 07:03:13;;;;;;;2.55;2.30;;;2.00;95.40;;;;;;623198;230;26618;-68
2022/03/08 07:05:40;;;;;;;2.25;2.15;;;2.10;94.40;;;;;;623242;229;26587;-68
2022/03/08 07:08:08;;;;;;;2.33;2.12;;;2.10;94.30;;;;;;623320;229;26609;-68
2022/03/08 07:10:36;;;;;;;2.35;2.15;;;2.10;95.20;;;;;;625971;223;26669;-67
2022/03/08 07:13:04;;;;;;;3.12;2.30;;;2.30;94.70;;;;;;624904;229;26822;-67
2022/03/08 07:15:33;;;;;;;2.17;2.08;;;2.30;94.70;;;;;;623255;229;26812;-67
2022/03/08 07:17:59;;;;;;;2.15;2.05;;;2.50;94.70;;;;;;623150;229;26599;-67
2022/03/08 07:20:27;;;;;;;2.28;2.10;;;2.70;95.00;;;;;;622927;230;26578;-68
2022/03/08 07:22:54;;;;;;;2.10;2.00;;;2.60;94.90;;;;;;622909;229;26653;-68
2022/03/08 07:25:22;;;;;;;2.28;2.17;;;2.70;93.00;;;;;;622963;230;26822;-68
2022/03/08 07:27:49;;;;;;;2.17;2.08;;;2.80;93.80;;;;;;622986;231;26552;-68
2022/03/08 07:30:16;;;;;;;2.30;2.10;;;3.00;93.20;;;;;;622905;224;26589;-68
2022/03/08 07:32:44;;;;;;;2.30;2.10;;;3.00;93.30;;;;;;622937;231;26620;-68
2022/03/08 07:35:11;;;;;;;2.72;2.03;;;3.00;93.20;;;;;;623058;230;26871;-68
2022/03/08 07:37:38;;;;;;;2.30;2.20;;;3.00;92.60;;;;;;623020;230;26579;-68
2022/03/08 07:40:07;;;;;;;2.40;2.20;;;3.00;92.50;;;;;;623257;226;26757;-68
2022/03/08 07:42:34;;;;;;;2.12;2.03;;;2.90;92.30;;;;;;626997;226;26592;-68
2022/03/08 07:45:03;;;;;;;3.62;2.10;;;3.10;92.00;;;;;;627626;225;26598;-68
2022/03/08 07:47:30;;;;;;;2.05;1.85;;;3.10;92.00;;;;;;627348;226;26540;-68
2022/03/08 07:49:57;;;;;;;2.08;1.98;;;3.20;91.90;;;;;;626532;226;26817;-68
2022/03/08 07:52:24;;;;;;;2.05;1.90;;;3.30;91.50;;;;;;626217;229;26568;-68
2022/03/08 07:54:51;;;;;;;2.17;2.00;;;3.30;91.70;;;;;;627106;227;26770;-68
2022/03/08 07:57:19;;;;;;;2.20;2.03;;;3.50;90.50;;;;;;627471;228;26545;-69
2022/03/08 07:59:47;;;;;;;2.03;1.70;;;3.50;90.30;;;;;;627192;229;26556;-68
2022/03/08 08:02:14;;;;;;;2.00;1.90;;;3.50;90.30;;;;;;626943;228;26648;-69
2022/03/08 08:04:42;;;;;;;1.90;1.80;;;3.60;90.60;;;;;;626596;229;26613;-71
2022/03/08 08:07:10;;;;;;;3.00;2.20;;;3.60;89.30;;;;;;626658;229;26937;-71
2022/03/08 08:09:38;;;;;;;2.58;2.10;;;3.60;89.30;;;;;;632586;226;26814;-70
2022/03/08 08:12:07;;;;;;;2.83;2.50;;;3.70;90.70;;;;;;635860;226;26589;-70
2022/03/08 08:14:33;;;;;;;3.15;2.30;;;3.70;89.50;;;;;;635536;226;26554;-70
2022/03/08 08:17:00;;;;;;;2.15;2.05;;;3.80;89.30;;;;;;634835;226;26806;-70
2022/03/08 08:19:27;;;;;;;2.85;2.12;;;3.80;89.50;;;;;;625735;229;26548;-70
2022/03/08 08:21:54;;;;;;;5.15;2.70;;;3.90;89.60;;;;;;623257;229;26568;-68
2022/03/08 08:24:22;;;;;;;2.80;2.10;;;4.10;88.90;;;;;;624288;226;26594;-68
2022/03/08 08:26:49;;;;;;;3.97;2.20;;;4.20;87.80;;;;;;625201;225;26816;-69
2022/03/08 08:29:17;;;;;;;3.95;2.12;;;4.30;87.30;;;;;;625846;226;26808;-65
2022/03/08 08:31:45;;;;;;;4.65;2.45;;;4.30;87.00;;;;;;627032;225;26538;-65
2022/03/08 08:34:13;;;;;;;7.32;2.40;;;4.30;87.00;;;;;;626609;225;26789;-65
2022/03/08 08:36:40;;;;;;;4.12;2.35;;;4.20;88.10;;;;;;625997;226;26597;-65
2022/03/08 08:39:07;;;;;;;2.80;2.60;;;4.30;88.00;;;;;;625066;229;26816;-65
2022/03/08 08:41:34;;;;;;;4.60;2.30;;;4.50;87.30;;;;;;624735;230;26592;-65
2022/03/08 08:44:01;;;;;;;5.18;2.42;;;4.50;86.80;;;;;;631249;226;26922;-65
2022/03/08 08:46:29;;;;;;;3.95;2.40;;;4.50;86.10;;;;;;625572;226;26639;-65
2022/03/08 08:48:57;;;;;;;7.47;2.45;;;4.70;84.80;;;;;;626671;225;26572;-65
2022/03/08 08:51:26;;;;;;;6.07;2.78;;;4.80;84.00;;;;;;626042;225;26565;-65
2022/03/08 08:53:54;;;;;;;5.07;2.20;;;4.90;83.90;;;;;;626729;225;26585;-64
2022/03/08 08:56:21;;;;;;;2.70;2.50;;;4.80;83.80;;;;;;623727;229;26901;-64
2022/03/08 08:58:48;;;;;;;3.55;2.67;;;4.90;83.70;;;;;;624158;229;26709;-64
2022/03/08 09:01:15;;;;;;;3.45;2.40;;;5.00;83.50;;;;;;631304;226;26813;-65
2022/03/08 09:03:44;;;;;;;4.78;2.40;;;5.00;83.70;;;;;;627916;226;26585;-65
2022/03/08 09:06:11;;;;;;;3.05;2.53;;;5.10;82.60;;;;;;633671;224;26783;-65
2022/03/08 09:08:39;;;;;;;4.97;2.33;;;5.20;81.00;;;;;;632564;225;26592;-65
2022/03/08 09:11:08;;;;;;;5.18;2.10;;;5.20;80.60;;;;;;627502;225;26620;-65
2022/03/08 09:13:35;;;;;;;3.47;2.15;;;5.30;80.50;;;;;;629588;225;26742;-65
2022/03/08 09:16:03;;;;;;;2.22;2.05;;;5.40;80.10;;;;;;625734;225;26819;-64
2022/03/08 09:18:31;;;;;;;3.40;2.30;;;5.50;80.90;;;;;;632976;225;26556;-67
2022/03/08 09:20:58;;;;;;;7.45;2.50;;;5.50;80.90;;;;;;636062;225;26546;-63
2022/03/08 09:23:26;;;;;;;5.97;2.60;;;5.70;77.80;;;;;;633291;225;26627;-64
2022/03/08 09:25:54;;;;;;;3.33;2.20;;;5.70;77.80;;;;;;638398;225;26807;-63
2022/03/08 09:28:21;;;;;;;5.80;2.25;;;5.70;77.30;;;;;;630996;225;26830;-64
2022/03/08 09:30:49;;;;;;;2.17;1.92;;;5.80;77.20;;;;;;623298;229;26552;-63
2022/03/08 09:33:15;;;;;;;3.58;1.87;;;5.80;77.10;;;;;;625242;229;26927;-63
2022/03/08 09:35:43;;;;;;;3.90;2.47;;;6.00;76.30;;;;;;623841;229;26569;-63
2022/03/08 09:38:12;;;;;;;2.67;2.05;;;6.00;76.30;;;;;;626541;229;26513;-62
2022/03/08 09:40:38;;;;;;;4.72;2.50;;;6.00;75.20;;;;;;626453;229;26540;-65
2022/03/08 09:43:05;;;;;;;75.12;13.70;;;5.90;75.50;;;;;;626334;228;26871;-68
2022/03/08 09:45:32;;;;;;;75.85;17.62;;;6.00;78.10;;;;;;626238;229;26543;-69
2022/03/08 09:48:00;;;;;;;1285.05;98.65;;;6.10;80.80;;;;;;626273;229;26907;-67
2022/03/08 09:50:29;;;;;;;89.28;18.77;;;6.30;79.90;;;;;;626267;230;26545;-64
2022/03/08 09:52:56;;;;;;;85.72;18.80;;;6.50;75.20;;;;;;626065;229;26567;-68
2022/03/08 09:55:25;;;;;;;77.00;16.92;;;6.60;72.90;;;;;;626560;230;26520;-68
2022/03/08 09:57:51;;;;;;;65.28;15.57;;;6.70;72.50;;;;;;626469;229;26516;-69
2022/03/08 10:00:19;;;;;;;63.05;15.68;;;6.60;71.60;;;;;;626574;229;26520;-69
2022/03/08 10:02:50;;;;;;;55.50;13.70;;;6.60;72.20;;;;;;626579;229;26797;-69
2022/03/08 10:05:17;;;;;;;52.55;13.93;;;6.60;72.20;;;;;;626593;229;26767;-69
2022/03/08 10:07:56;;;;;;;34.92;9.38;;;6.70;73.00;;;;;;626205;229;26562;-69
2022/03/08 10:10:24;;;;;;;11.57;4.37;;;6.70;70.40;;;;;;626627;229;26558;-68
2022/03/08 10:12:56;;;;;;;9.32;3.65;;;6.70;69.80;;;;;;625177;229;26596;-69
2022/03/08 10:15:23;;;;;;;6.40;2.87;;;6.70;69.80;;;;;;625892;226;26508;-70
2022/03/08 10:17:50;;;;;;;7.65;3.33;;;6.80;69.50;;;;;;626618;225;26559;-69
2022/03/08 10:20:18;;;;;;;8.57;3.45;;;6.90;70.00;;;;;;625271;226;26781;-68
2022/03/08 10:22:46;;;;;;;7.60;3.40;;;6.90;69.70;;;;;;632539;225;26617;-69
2022/03/08 10:25:17;;;;;;;7.20;3.03;;;6.90;70.20;;;;;;634045;225;26502;-68
2022/03/08 10:27:45;;;;;;;10.02;3.40;;;6.90;70.20;;;;;;639183;225;26500;-69
2022/03/08 10:30:13;;;;;;;8.25;3.12;;;6.90;69.30;;;;;;630805;225;26559;-68
2022/03/08 10:32:39;;;;;;;8.45;3.17;;;7.00;68.90;;;;;;623652;229;26810;-69
2022/03/08 10:35:06;;;;;;;5.00;2.70;;;7.10;68.80;;;;;;623571;229;26551;-69
2022/03/08 10:37:35;;;;;;;7.05;2.80;;;7.30;68.20;;;;;;623339;229;26510;-68
2022/03/08 10:40:01;;;;;;;5.47;2.92;;;7.30;67.80;;;;;;623282;230;27129;-69
2022/03/08 10:42:29;;;;;;;7.20;2.80;;;7.30;66.30;;;;;;624699;229;26615;-68
2022/03/08 10:45:07;;;;;;;5.25;2.75;;;7.30;67.20;;;;;;629158;225;26500;-68
2022/03/08 10:47:39;;;;;;;3.85;2.72;;;7.30;67.20;;;;;;625086;229;26561;-67
2022/03/08 10:50:08;;;;;;;5.70;2.62;;;7.40;66.70;;;;;;626402;229;26516;-68
2022/03/08 10:52:35;;;;;;;4.82;2.78;;;7.50;66.40;;;;;;634371;226;26641;-68
2022/03/08 10:55:09;;;;;;;3.20;2.35;;;7.50;65.80;;;;;;626303;226;26799;-68
2022/03/08 10:57:37;;;;;;;3.40;2.20;;;7.70;64.50;;;;;;626180;229;26504;-67
2022/03/08 11:00:11;;;;;;;4.43;2.53;;;7.60;64.40;;;;;;624507;229;26511;-68
2022/03/08 11:02:34;;;;;;;4.50;2.67;;;7.60;64.00;;;;;;622653;231;26607;-67
2022/03/08 11:05:08;;;;;;;2.42;2.20;;;7.70;64.30;;;;;;622946;230;26880;-68
2022/03/08 11:07:36;;;;;;;2.67;2.40;;;7.80;64.20;;;;;;622862;228;26612;-68
2022/03/08 11:10:04;;;;;;;3.20;2.08;;;7.80;64.10;;;;;;622962;229;26595;-68
2022/03/08 11:12:31;;;;;;;4.68;2.30;;;7.80;63.10;;;;;;625054;229;26591;-68
2022/03/08 11:14:59;;;;;;;4.07;2.08;;;8.00;63.60;;;;;;626268;224;26789;-68
2022/03/08 11:17:26;;;;;;;7.43;2.30;;;8.00;63.20;;;;;;626282;229;26801;-67
2022/03/08 11:19:54;;;;;;;3.12;2.20;;;8.00;61.10;;;;;;624977;229;26582;-68
2022/03/08 11:22:22;;;;;;;3.55;2.22;;;8.00;60.60;;;;;;628961;226;26615;-68
2022/03/08 11:24:49;;;;;;;2.17;1.85;;;8.00;60.60;;;;;;629175;225;26584;-68
2022/03/08 11:27:16;;;;;;;2.40;2.20;;;8.10;61.40;;;;;;627838;226;26569;-67
2022/03/08 11:29:43;;;;;;;2.92;2.42;;;8.10;60.20;;;;;;627367;225;26804;-68
2022/03/08 11:32:13;;;;;;;2.00;1.70;;;8.20;60.70;;;;;;626308;226;26559;-68
2022/03/08 11:34:42;;;;;;;2.90;2.40;;;8.30;59.20;;;;;;624396;226;26574;-68
2022/03/08 11:37:09;;;;;;;2.08;1.85;;;8.30;59.20;;;;;;624836;229;26791;-67
2022/03/08 11:39:39;;;;;;;2.17;1.92;;;8.20;59.30;;;;;;624500;225;26524;-67
2022/03/08 11:42:15;;;;;;;4.12;2.00;;;8.20;59.50;;;;;;634646;226;26807;-68
2022/03/08 11:44:42;;;;;;;2.40;2.25;;;8.20;59.20;;;;;;625899;229;26584;-67
2022/03/08 11:47:09;;;;;;;4.25;2.15;;;8.20;59.30;;;;;;623040;226;26802;-67
2022/03/08 11:49:39;;;;;;;3.65;1.90;;;8.30;59.20;;;;;;632393;226;26522;-67
2022/03/08 11:52:09;;;;;;;4.32;1.95;;;8.30;59.20;;;;;;623540;225;26559;-67
2022/03/08 11:54:36;;;;;;;2.90;2.00;;;8.30;59.00;;;;;;628376;225;26825;-67
2022/03/08 11:57:03;;;;;;;2.00;1.83;;;8.40;58.90;;;;;;630697;226;26603;-67
2022/03/08 11:59:31;;;;;;;1.70;1.60;;;8.50;58.90;;;;;;633258;225;26794;-67
2022/03/08 12:01:59;;;;;;;1.85;1.73;;;8.60;58.90;;;;;;634537;225;26528;-68
2022/03/08 12:04:28;;;;;;;1.70;1.60;;;8.70;58.60;;;;;;634937;226;26555;-67
2022/03/08 12:06:58;;;;;;;2.55;2.08;;;8.70;58.70;;;;;;635139;226;27188;-67
2022/03/08 12:09:22;;;;;;;2.75;1.87;;;8.70;58.40;;;;;;626458;226;26570;-67
2022/03/08 12:11:53;;;;;;;1.70;1.60;;;8.90;58.20;;;;;;635234;226;26584;-68
2022/03/08 12:14:20;;;;;;;1.70;1.60;;;8.90;57.90;;;;;;627241;225;26789;-68
2022/03/08 12:16:48;;;;;;;1.95;1.85;;;9.00;57.70;;;;;;626004;226;26500;-67
2022/03/08 12:19:25;;;;;;;1.80;1.70;;;9.00;57.50;;;;;;623774;226;26500;-68
2022/03/08 12:21:55;;;;;;;3.35;1.85;;;8.90;57.70;;;;;;635125;225;26588;-66
2022/03/08 12:24:22;;;;;;;2.25;2.05;;;9.00;57.20;;;;;;637591;225;26540;-67
2022/03/08 12:27:04;;;;;;;1.73;1.62;;;9.00;57.70;;;;;;632170;226;27163;-67
2022/03/08 12:29:36;;;;;;;2.62;1.60;;;9.10;57.30;;;;;;629899;225;26528;-67
2022/03/08 12:32:20;;;;;;;2.20;2.00;;;9.10;56.60;;;;;;625757;225;26579;-67
2022/03/08 12:34:48;;;;;;;2.65;1.70;;;9.00;56.10;;;;;;628061;225;26548;-66
2022/03/08 12:37:17;;;;;;;1.67;1.58;;;9.10;56.40;;;;;;631644;226;27252;-67
2022/03/08 12:39:52;;;;;;;1.77;1.67;;;9.10;56.10;;;;;;632644;225;26539;-67
2022/03/08 12:42:20;;;;;;;1.87;1.77;;;9.10;56.10;;;;;;625820;226;27263;-66
2022/03/08 12:45:03;;;;;;;1.73;1.62;;;9.20;56.00;;;;;;624749;226;26541;-67
2022/03/08 12:47:30;;;;;;;3.08;1.67;;;9.10;56.00;;;;;;627163;226;26542;-66
2022/03/08 12:49:57;;;;;;;1.83;1.52;;;9.20;55.70;;;;;;624301;226;26814;-67
2022/03/08 12:52:24;;;;;;;1.77;1.67;;;9.30;55.80;;;;;;632537;224;26640;-66